Time;durP1;ratioP1;P1;durP2;ratioP2;P2;SDS_P1;SDS_P2;PMS_P1;PMS_P2;Temp;Humidity;BMP_temperature;BMP_pressure;BME280_temperature;BME280_humidity;BME280_pressure;Samples;Min_cycle;Max_cycle;Signal;HPM_P1;HPM_P2
2024/03/05 00:00:58;;;;;;;19.17;15.17;;;11.00;99.90;;;;;;5089438;28;20272;-71
2024/03/05 00:03:25;;;;;;;19.10;15.53;;;10.90;99.90;;;;;;5089071;28;20210;-71
2024/03/05 00:05:52;;;;;;;22.17;14.57;;;10.70;99.90;;;;;;5087795;28;20306;-71
2024/03/05 00:08:19;;;;;;;18.83;14.90;;;10.60;99.90;;;;;;5088791;28;20631;-71
2024/03/05 00:10:46;;;;;;;20.13;15.13;;;10.60;99.90;;;;;;5088621;28;20313;-71
2024/03/05 00:13:14;;;;;;;17.63;14.03;;;10.60;99.90;;;;;;5088290;28;20624;-71
2024/03/05 00:15:41;;;;;;;16.40;13.53;;;10.60;99.90;;;;;;5088490;28;20579;-71
2024/03/05 00:18:08;;;;;;;15.87;13.93;;;10.60;99.90;;;;;;5088845;28;20202;-72
2024/03/05 00:20:35;;;;;;;20.00;14.97;;;10.60;99.90;;;;;;5088589;28;20206;-71
2024/03/05 00:23:02;;;;;;;17.47;14.60;;;10.60;99.90;;;;;;5089362;28;20302;-71
2024/03/05 00:25:29;;;;;;;19.20;14.60;;;10.50;99.90;;;;;;5088414;28;20294;-71
2024/03/05 00:27:56;;;;;;;17.20;14.03;;;10.60;99.90;;;;;;5088904;28;20238;-71
2024/03/05 00:30:24;;;;;;;18.10;14.43;;;10.60;99.90;;;;;;5088424;28;20230;-72
2024/03/05 00:32:51;;;;;;;20.83;14.37;;;10.50;99.90;;;;;;5087981;28;20318;-70
2024/03/05 00:35:18;;;;;;;16.50;13.57;;;10.40;99.90;;;;;;5088230;28;20325;-72
2024/03/05 00:37:45;;;;;;;20.03;14.33;;;10.30;99.90;;;;;;5088271;28;20216;-71
2024/03/05 00:40:13;;;;;;;17.70;13.73;;;10.30;99.90;;;;;;5088031;28;20241;-71
2024/03/05 00:42:40;;;;;;;16.80;13.03;;;10.20;99.90;;;;;;5088220;28;20211;-72
2024/03/05 00:45:08;;;;;;;17.83;14.33;;;10.20;99.90;;;;;;5088313;28;20207;-73
2024/03/05 00:47:36;;;;;;;18.07;13.97;;;10.20;99.90;;;;;;5087742;28;20253;-72
2024/03/05 00:50:04;;;;;;;20.50;14.97;;;10.20;99.90;;;;;;5088327;28;20634;-73
2024/03/05 00:52:31;;;;;;;17.20;14.33;;;10.10;99.90;;;;;;5087918;28;20234;-71
2024/03/05 00:54:59;;;;;;;17.50;13.47;;;10.00;99.90;;;;;;5087620;28;20203;-70
2024/03/05 00:57:25;;;;;;;16.90;13.57;;;9.90;99.90;;;;;;5087974;28;20254;-70
2024/03/05 00:59:53;;;;;;;15.87;13.60;;;10.10;99.90;;;;;;5087842;28;20256;-72
2024/03/05 01:02:21;;;;;;;15.87;13.53;;;10.00;99.90;;;;;;5087739;28;20211;-71
2024/03/05 01:04:50;;;;;;;17.23;13.40;;;10.00;99.90;;;;;;5087710;28;20207;-71
2024/03/05 01:07:17;;;;;;;16.23;12.47;;;10.00;99.90;;;;;;5087801;28;20214;-72
2024/03/05 01:09:46;;;;;;;20.07;13.10;;;10.00;99.90;;;;;;5085734;28;20713;-73
2024/03/05 01:12:13;;;;;;;15.93;12.00;;;10.10;99.90;;;;;;5086361;28;20246;-73
2024/03/05 01:14:41;;;;;;;16.40;12.23;;;10.00;99.90;;;;;;5084697;28;20195;-72
2024/03/05 01:17:08;;;;;;;16.43;12.43;;;10.00;99.90;;;;;;5086915;28;20294;-72
2024/03/05 01:19:35;;;;;;;17.33;13.03;;;9.80;99.90;;;;;;5087220;28;20206;-72
2024/03/05 01:22:04;;;;;;;17.80;12.33;;;9.70;99.90;;;;;;5087417;28;20207;-72
2024/03/05 01:24:31;;;;;;;17.47;12.40;;;9.60;99.90;;;;;;5086733;28;20319;-72
2024/03/05 01:26:58;;;;;;;16.23;12.83;;;9.60;99.90;;;;;;5087009;28;20195;-72
2024/03/05 01:29:25;;;;;;;14.57;11.70;;;9.60;99.90;;;;;;5087041;28;20281;-72
2024/03/05 01:31:56;;;;;;;13.13;11.73;;;9.60;99.90;;;;;;5086736;28;20233;-72
2024/03/05 01:34:23;;;;;;;14.83;11.83;;;9.70;99.90;;;;;;5067048;28;20192;-73
2024/03/05 01:36:50;;;;;;;15.93;12.03;;;9.80;99.90;;;;;;5067137;28;20691;-72
2024/03/05 01:39:21;;;;;;;19.23;11.53;;;9.70;99.90;;;;;;5083227;28;20226;-71
2024/03/05 01:41:48;;;;;;;16.97;12.20;;;9.60;99.90;;;;;;5087573;28;20187;-72
2024/03/05 01:44:15;;;;;;;15.27;12.00;;;9.60;99.90;;;;;;5087348;28;20656;-72
2024/03/05 01:46:41;;;;;;;13.57;11.60;;;9.60;99.90;;;;;;5087204;28;20623;-71
2024/03/05 01:49:09;;;;;;;15.53;11.93;;;9.60;99.90;;;;;;5087394;28;20570;-70
2024/03/05 01:51:37;;;;;;;16.00;12.30;;;9.60;99.90;;;;;;5087063;28;20313;-70
2024/03/05 01:54:06;;;;;;;17.17;12.27;;;9.60;99.90;;;;;;5087344;28;20225;-70
2024/03/05 01:56:35;;;;;;;15.40;11.73;;;9.40;99.90;;;;;;5086791;28;20207;-70
2024/03/05 01:59:03;;;;;;;14.67;11.60;;;9.40;99.90;;;;;;5087409;28;20203;-70
2024/03/05 02:01:32;;;;;;;14.50;12.03;;;9.40;99.90;;;;;;5087259;28;20209;-71
2024/03/05 02:04:00;;;;;;;14.50;11.73;;;9.40;99.90;;;;;;5087361;28;20194;-70
2024/03/05 02:06:31;;;;;;;14.37;11.63;;;9.50;99.90;;;;;;5086702;28;20211;-70
2024/03/05 02:08:59;;;;;;;16.43;11.97;;;9.50;99.90;;;;;;5086991;28;20202;-70
2024/03/05 02:11:27;;;;;;;14.07;11.90;;;9.40;99.90;;;;;;5086521;28;20233;-70
2024/03/05 02:13:55;;;;;;;15.37;12.00;;;9.50;99.90;;;;;;5086376;28;20284;-70
2024/03/05 02:16:22;;;;;;;14.83;11.47;;;9.50;99.90;;;;;;5087132;28;20207;-70
2024/03/05 02:18:49;;;;;;;14.97;11.50;;;9.50;99.90;;;;;;5086486;28;20297;-70
2024/03/05 02:21:21;;;;;;;14.00;11.03;;;9.50;99.90;;;;;;5086907;28;20317;-70
2024/03/05 02:23:48;;;;;;;14.30;11.10;;;9.40;99.90;;;;;;5087170;28;20244;-71
2024/03/05 02:26:17;;;;;;;13.83;11.33;;;9.30;99.90;;;;;;5086551;28;20206;-71
2024/03/05 02:28:45;;;;;;;12.73;11.43;;;9.30;99.90;;;;;;5087178;28;20308;-70
2024/03/05 02:31:12;;;;;;;15.30;11.00;;;9.30;99.90;;;;;;5090696;28;20570;-73
2024/03/05 02:33:39;;;;;;;14.50;11.93;;;9.30;99.90;;;;;;5089877;28;20223;-72
2024/03/05 02:36:08;;;;;;;16.73;11.70;;;9.30;99.90;;;;;;5090724;28;20322;-72
2024/03/05 02:38:38;;;;;;;18.23;11.67;;;9.30;99.90;;;;;;5090258;28;20824;-72
2024/03/05 02:41:05;;;;;;;16.23;11.97;;;9.30;99.90;;;;;;5090694;28;20214;-71
2024/03/05 02:43:33;;;;;;;18.33;12.50;;;9.30;99.90;;;;;;5072889;28;20207;-72
2024/03/05 02:46:00;;;;;;;15.73;12.77;;;9.30;99.90;;;;;;5087107;28;20722;-72
2024/03/05 02:48:27;;;;;;;18.47;12.43;;;9.30;99.90;;;;;;5090786;28;20217;-72
2024/03/05 02:50:55;;;;;;;13.57;11.67;;;9.20;99.90;;;;;;5090172;28;20310;-72
2024/03/05 02:53:22;;;;;;;15.53;11.93;;;9.20;99.90;;;;;;5090391;28;20235;-72
2024/03/05 02:55:50;;;;;;;14.87;12.50;;;9.10;99.90;;;;;;5090164;28;20293;-72
2024/03/05 02:58:17;;;;;;;15.00;11.57;;;9.10;99.90;;;;;;5089743;28;20207;-72
2024/03/05 03:00:44;;;;;;;16.10;11.40;;;9.10;99.90;;;;;;5089741;28;20199;-72
2024/03/05 03:03:11;;;;;;;14.90;11.00;;;9.00;99.90;;;;;;5089295;28;20950;-72
2024/03/05 03:05:38;;;;;;;13.30;11.83;;;9.00;99.90;;;;;;5089369;28;20205;-71
2024/03/05 03:08:05;;;;;;;15.70;11.80;;;9.00;99.90;;;;;;5089850;28;20767;-71
2024/03/05 03:10:32;;;;;;;14.47;11.37;;;9.10;99.90;;;;;;5089663;28;20238;-71
2024/03/05 03:13:02;;;;;;;20.57;12.63;;;8.90;99.90;;;;;;5089353;28;20231;-71
2024/03/05 03:15:30;;;;;;;13.57;11.53;;;8.90;99.90;;;;;;5089859;28;20195;-72
2024/03/05 03:17:57;;;;;;;16.70;11.70;;;8.90;99.90;;;;;;5089412;28;20802;-71
2024/03/05 03:20:24;;;;;;;14.00;11.90;;;8.70;99.90;;;;;;5085447;28;20207;-73
2024/03/05 03:22:51;;;;;;;14.27;12.10;;;8.70;99.90;;;;;;5089661;28;20224;-70
2024/03/05 03:25:18;;;;;;;15.70;11.70;;;8.60;99.90;;;;;;5089106;28;20237;-70
2024/03/05 03:27:46;;;;;;;16.93;11.07;;;8.70;99.90;;;;;;5085929;28;20237;-70
2024/03/05 03:30:20;;;;;;;17.17;12.63;;;8.60;99.90;;;;;;5087708;28;20210;-70
2024/03/05 03:32:47;;;;;;;16.77;11.77;;;8.50;99.90;;;;;;5067994;28;20231;-70
2024/03/05 03:35:14;;;;;;;13.83;11.10;;;8.60;99.90;;;;;;5067423;28;20207;-69
2024/03/05 03:37:41;;;;;;;14.23;11.40;;;8.50;99.90;;;;;;5069769;28;20257;-70
2024/03/05 03:40:17;;;;;;;16.43;12.00;;;8.40;99.90;;;;;;5086820;28;20317;-69
2024/03/05 03:42:45;;;;;;;16.50;12.43;;;8.30;99.90;;;;;;5066913;28;20294;-69
2024/03/05 03:45:14;;;;;;;16.07;12.80;;;8.30;99.90;;;;;;5067157;28;20207;-69
2024/03/05 03:47:41;;;;;;;15.50;11.33;;;8.20;99.90;;;;;;5067403;28;20207;-69
2024/03/05 03:50:09;;;;;;;15.93;11.63;;;8.20;99.90;;;;;;5085192;28;20205;-70
2024/03/05 03:52:38;;;;;;;14.67;11.77;;;8.00;99.90;;;;;;5087095;28;20638;-70
2024/03/05 03:55:06;;;;;;;16.50;11.97;;;8.00;99.90;;;;;;5066501;28;20640;-70
2024/03/05 03:57:34;;;;;;;17.20;11.53;;;7.90;99.90;;;;;;5066762;28;20666;-70
2024/03/05 04:00:01;;;;;;;16.30;11.57;;;7.90;99.90;;;;;;5084057;28;20215;-70
2024/03/05 04:02:29;;;;;;;14.93;11.20;;;7.90;99.90;;;;;;5086809;28;20253;-70
2024/03/05 04:04:56;;;;;;;18.03;12.00;;;7.80;99.90;;;;;;5087681;28;20752;-70
2024/03/05 04:07:25;;;;;;;15.60;12.00;;;7.90;99.90;;;;;;5087640;28;20213;-70
2024/03/05 04:09:52;;;;;;;15.97;11.93;;;7.90;99.90;;;;;;5088761;28;20228;-71
2024/03/05 04:12:19;;;;;;;17.00;11.37;;;7.90;99.90;;;;;;5088130;28;20238;-70
2024/03/05 04:14:46;;;;;;;17.50;12.20;;;7.80;99.90;;;;;;5088217;28;20198;-70
2024/03/05 04:17:14;;;;;;;14.53;11.77;;;7.70;99.90;;;;;;5088670;28;20273;-70
2024/03/05 04:19:43;;;;;;;16.23;11.90;;;7.70;99.90;;;;;;5088575;28;20342;-69
2024/03/05 04:22:10;;;;;;;20.57;11.83;;;7.70;99.90;;;;;;5088662;28;20206;-70
2024/03/05 04:24:37;;;;;;;17.00;12.07;;;7.70;99.90;;;;;;5088210;28;20314;-70
2024/03/05 04:27:05;;;;;;;14.93;11.73;;;7.70;99.90;;;;;;5088189;28;20577;-69
2024/03/05 04:29:31;;;;;;;18.17;12.23;;;7.70;99.90;;;;;;5088621;28;20293;-70
2024/03/05 04:32:08;;;;;;;15.33;11.70;;;7.60;99.90;;;;;;5088245;28;20669;-70
2024/03/05 04:34:35;;;;;;;17.33;11.03;;;7.70;99.90;;;;;;5088371;28;20248;-69
2024/03/05 04:37:08;;;;;;;17.33;11.43;;;7.80;99.90;;;;;;5088156;28;20253;-69
2024/03/05 04:39:35;;;;;;;16.13;11.83;;;7.60;99.90;;;;;;5087996;28;20255;-69
2024/03/05 04:42:02;;;;;;;15.40;10.83;;;7.70;99.90;;;;;;5088562;28;20293;-69
2024/03/05 04:44:29;;;;;;;17.10;11.30;;;7.60;99.90;;;;;;5088204;28;20593;-70
2024/03/05 04:46:57;;;;;;;16.67;12.43;;;7.60;99.90;;;;;;5088243;28;20234;-70
2024/03/05 04:49:24;;;;;;;13.80;10.80;;;7.50;99.90;;;;;;5088191;28;20206;-70
2024/03/05 04:51:50;;;;;;;18.17;10.83;;;7.50;99.90;;;;;;5087422;28;20211;-70
2024/03/05 04:54:19;;;;;;;14.47;11.27;;;7.50;99.90;;;;;;5087785;28;20241;-70
2024/03/05 04:56:47;;;;;;;16.13;11.20;;;7.50;99.90;;;;;;5087851;28;20210;-69
2024/03/05 04:59:14;;;;;;;14.97;10.33;;;7.40;99.90;;;;;;5087807;28;20588;-69
2024/03/05 05:01:41;;;;;;;16.93;10.83;;;7.30;99.90;;;;;;5087681;28;20285;-70
2024/03/05 05:04:07;;;;;;;14.93;11.00;;;7.20;99.90;;;;;;5087910;28;20230;-69
2024/03/05 05:06:34;;;;;;;13.57;10.50;;;7.10;99.90;;;;;;5087834;28;20290;-70
2024/03/05 05:09:02;;;;;;;13.87;11.27;;;7.20;99.90;;;;;;5087895;28;20298;-70
2024/03/05 05:11:30;;;;;;;14.30;11.07;;;7.10;99.90;;;;;;5087211;28;20226;-70
2024/03/05 05:13:57;;;;;;;15.47;10.27;;;7.00;99.90;;;;;;5087392;28;20243;-70
2024/03/05 05:16:26;;;;;;;14.70;11.43;;;7.00;99.90;;;;;;5087744;28;20234;-70
2024/03/05 05:18:53;;;;;;;16.30;10.90;;;7.10;99.90;;;;;;5086664;28;20268;-70
2024/03/05 05:21:20;;;;;;;15.47;10.80;;;7.20;99.90;;;;;;5087780;28;20298;-70
2024/03/05 05:23:47;;;;;;;14.73;10.40;;;7.20;99.90;;;;;;5087322;28;20301;-70
2024/03/05 05:26:14;;;;;;;13.10;10.73;;;7.20;99.90;;;;;;5087085;28;20305;-70
2024/03/05 05:28:42;;;;;;;13.77;10.60;;;7.20;99.90;;;;;;5087590;28;20297;-70
2024/03/05 05:31:23;;;;;;;14.30;11.20;;;7.10;99.90;;;;;;5087301;28;20209;-70
2024/03/05 05:33:50;;;;;;;13.73;10.43;;;7.10;99.90;;;;;;5087566;28;20246;-70
2024/03/05 05:36:16;;;;;;;13.60;10.37;;;7.10;99.90;;;;;;5087075;28;20199;-70
2024/03/05 05:38:44;;;;;;;15.10;10.20;;;7.10;99.90;;;;;;5087178;28;20210;-70
2024/03/05 05:41:10;;;;;;;15.63;10.27;;;7.10;99.90;;;;;;5087207;28;20295;-70
2024/03/05 05:43:37;;;;;;;15.33;9.83;;;7.10;99.90;;;;;;5087362;28;20216;-69
2024/03/05 05:46:12;;;;;;;13.90;10.50;;;7.00;99.90;;;;;;5087192;28;20219;-70
2024/03/05 05:48:39;;;;;;;15.40;10.50;;;7.00;99.90;;;;;;5087238;28;20190;-69
2024/03/05 05:51:10;;;;;;;20.20;10.27;;;7.00;99.90;;;;;;5086841;28;20294;-69
2024/03/05 05:53:36;;;;;;;12.70;10.23;;;7.00;99.90;;;;;;5086895;28;20416;-69
2024/03/05 05:56:05;;;;;;;14.13;9.53;;;7.00;99.90;;;;;;5087033;28;20219;-69
2024/03/05 05:58:33;;;;;;;12.37;9.40;;;6.90;99.90;;;;;;5085417;28;20206;-69
2024/03/05 06:01:00;;;;;;;20.73;9.60;;;6.90;99.90;;;;;;5084991;28;20230;-70
2024/03/05 06:03:29;;;;;;;11.10;9.97;;;6.80;99.90;;;;;;5086780;28;20207;-70
2024/03/05 06:05:55;;;;;;;11.07;9.90;;;6.70;99.90;;;;;;5086982;28;20198;-69
2024/03/05 06:08:22;;;;;;;13.53;9.30;;;6.70;99.90;;;;;;5086347;28;20657;-69
2024/03/05 06:10:49;;;;;;;16.20;10.07;;;6.70;99.90;;;;;;5086621;28;20293;-69
2024/03/05 06:13:16;;;;;;;18.20;10.73;;;6.70;99.90;;;;;;5086320;28;20251;-69
2024/03/05 06:15:43;;;;;;;16.73;10.17;;;6.70;99.90;;;;;;5086826;28;20289;-69
2024/03/05 06:18:11;;;;;;;14.60;10.13;;;6.70;99.90;;;;;;5086513;28;20213;-69
2024/03/05 06:20:39;;;;;;;13.87;10.13;;;6.70;99.90;;;;;;5086859;28;20301;-69
2024/03/05 06:23:06;;;;;;;13.00;9.93;;;6.70;99.90;;;;;;5086520;28;20225;-70
2024/03/05 06:25:33;;;;;;;11.70;9.60;;;6.60;99.90;;;;;;5086433;28;20297;-69
2024/03/05 06:28:00;;;;;;;14.73;10.10;;;6.50;99.90;;;;;;5086871;28;20290;-69
2024/03/05 06:30:28;;;;;;;15.43;10.23;;;6.60;99.90;;;;;;5086440;28;20210;-70
2024/03/05 06:32:55;;;;;;;15.97;10.67;;;6.60;99.90;;;;;;5087082;28;20207;-69
2024/03/05 06:35:26;;;;;;;15.77;10.43;;;6.60;99.90;;;;;;5086499;28;20220;-69
2024/03/05 06:37:57;;;;;;;18.00;10.23;;;6.60;99.90;;;;;;5086520;28;20213;-70
2024/03/05 06:40:25;;;;;;;15.23;10.60;;;6.60;99.90;;;;;;5086422;28;20563;-70
2024/03/05 06:42:53;;;;;;;17.13;10.10;;;6.60;99.90;;;;;;5086388;28;20220;-69
2024/03/05 06:45:26;;;;;;;16.53;10.07;;;6.60;99.90;;;;;;5086396;28;20756;-70
2024/03/05 06:47:56;;;;;;;13.10;9.77;;;6.50;99.90;;;;;;5086126;28;20718;-69
2024/03/05 06:50:33;;;;;;;12.17;9.37;;;6.70;99.90;;;;;;5086368;28;20202;-69
2024/03/05 06:58:31;;;;;;;20.50;10.60;;;7.00;99.90;;;;;;5086131;28;20239;-70
2024/03/05 07:00:57;;;;;;;11.40;9.70;;;7.00;99.90;;;;;;5086514;28;20203;-69
2024/03/05 07:03:25;;;;;;;17.80;9.90;;;7.00;99.90;;;;;;5086132;28;20215;-70
2024/03/05 07:05:52;;;;;;;13.53;9.60;;;7.10;99.90;;;;;;5086256;28;20218;-69
2024/03/05 07:08:21;;;;;;;17.17;10.30;;;7.10;99.90;;;;;;5086326;28;20249;-70
2024/03/05 07:10:48;;;;;;;16.80;10.70;;;7.10;99.90;;;;;;5086078;28;20214;-70
2024/03/05 07:13:15;;;;;;;13.87;9.43;;;7.00;99.90;;;;;;5085943;28;20235;-69
2024/03/05 07:15:42;;;;;;;14.37;9.97;;;7.00;99.90;;;;;;5087958;28;20210;-69
2024/03/05 07:18:10;;;;;;;16.43;10.00;;;7.00;99.90;;;;;;5090014;28;20202;-69
2024/03/05 07:20:38;;;;;;;18.73;10.00;;;6.90;99.90;;;;;;5089469;28;20210;-69
2024/03/05 07:23:05;;;;;;;14.47;9.77;;;7.00;99.90;;;;;;5089996;28;20217;-69
2024/03/05 07:25:34;;;;;;;17.87;10.30;;;6.90;99.90;;;;;;5089712;28;20317;-69
2024/03/05 07:28:01;;;;;;;15.93;9.57;;;6.90;99.90;;;;;;5089899;28;20286;-70
2024/03/05 07:30:28;;;;;;;15.27;10.23;;;6.90;99.90;;;;;;5089743;28;20293;-69
2024/03/05 07:32:56;;;;;;;17.40;9.63;;;6.90;99.90;;;;;;5089449;28;20747;-69
2024/03/05 07:35:23;;;;;;;14.03;9.50;;;7.00;99.90;;;;;;5089279;28;20763;-69
2024/03/05 07:37:50;;;;;;;12.83;9.30;;;7.10;99.90;;;;;;5089494;28;20305;-69
2024/03/05 07:40:18;;;;;;;11.33;9.57;;;7.20;99.90;;;;;;5089468;28;20241;-69
2024/03/05 07:42:48;;;;;;;16.17;10.37;;;7.20;99.90;;;;;;5089378;28;20569;-69
2024/03/05 07:45:16;;;;;;;14.93;9.73;;;7.20;99.90;;;;;;5087542;28;20333;-69
2024/03/05 07:47:43;;;;;;;16.00;10.03;;;7.20;99.90;;;;;;5088975;28;20211;-69
2024/03/05 07:50:12;;;;;;;12.93;9.87;;;7.20;99.90;;;;;;5089335;28;20298;-69
2024/03/05 07:52:40;;;;;;;11.50;9.03;;;7.30;99.90;;;;;;5089067;28;20203;-69
2024/03/05 07:55:09;;;;;;;15.17;9.30;;;7.40;99.90;;;;;;5089107;28;20237;-69
2024/03/05 07:57:37;;;;;;;15.17;9.47;;;7.30;99.90;;;;;;5088836;28;20232;-69
2024/03/05 08:00:11;;;;;;;19.07;10.20;;;7.30;99.90;;;;;;5089391;28;20661;-69
2024/03/05 08:02:39;;;;;;;14.63;9.73;;;7.40;99.90;;;;;;5089331;28;20292;-69
2024/03/05 08:05:07;;;;;;;12.90;9.73;;;7.50;99.90;;;;;;5089504;28;20228;-69
2024/03/05 08:07:35;;;;;;;13.93;10.03;;;7.50;99.90;;;;;;5089427;28;20302;-69
2024/03/05 08:10:06;;;;;;;12.23;9.77;;;7.50;99.90;;;;;;5088994;28;20214;-70
2024/03/05 08:12:35;;;;;;;15.37;10.07;;;7.50;99.90;;;;;;5088586;28;20316;-69
2024/03/05 08:15:03;;;;;;;13.73;9.90;;;7.50;99.90;;;;;;5088610;28;20723;-70
2024/03/05 08:17:33;;;;;;;18.63;9.90;;;7.60;99.90;;;;;;5088979;28;20199;-70
2024/03/05 08:20:00;;;;;;;13.00;10.03;;;7.70;99.90;;;;;;5088932;28;20213;-69
2024/03/05 08:22:27;;;;;;;15.23;11.00;;;7.70;99.90;;;;;;5088364;28;20764;-69
2024/03/05 08:24:53;;;;;;;14.33;10.07;;;7.80;99.90;;;;;;5088335;28;20621;-69
2024/03/05 08:27:20;;;;;;;15.40;10.00;;;7.90;99.90;;;;;;5087502;28;20294;-70
2024/03/05 08:29:49;;;;;;;17.67;10.70;;;8.10;99.90;;;;;;5088654;28;20297;-69
2024/03/05 08:32:17;;;;;;;17.77;10.63;;;8.20;99.90;;;;;;5088470;28;20347;-70
2024/03/05 08:34:46;;;;;;;17.20;9.97;;;8.30;99.90;;;;;;5088326;28;20253;-69
2024/03/05 08:37:15;;;;;;;17.70;10.30;;;8.40;99.90;;;;;;5088529;28;20203;-69
2024/03/05 08:39:42;;;;;;;12.83;9.80;;;8.50;99.90;;;;;;5087719;28;20219;-70
2024/03/05 08:42:09;;;;;;;13.70;9.33;;;8.50;99.90;;;;;;5088195;28;20290;-70
2024/03/05 08:44:36;;;;;;;13.67;9.33;;;8.50;99.90;;;;;;5088067;28;20249;-70
2024/03/05 08:47:03;;;;;;;23.07;10.20;;;8.50;99.90;;;;;;5088306;28;20302;-69
2024/03/05 08:49:30;;;;;;;14.20;9.70;;;8.50;99.90;;;;;;5088368;28;20313;-70
2024/03/05 08:52:01;;;;;;;14.43;9.87;;;8.60;99.90;;;;;;5087824;28;20851;-70
2024/03/05 08:54:30;;;;;;;13.13;9.63;;;8.70;99.90;;;;;;5087829;28;20226;-70
2024/03/05 08:56:58;;;;;;;15.13;9.93;;;8.70;99.90;;;;;;5088227;28;20264;-70
2024/03/05 08:59:25;;;;;;;16.13;10.27;;;8.80;99.90;;;;;;5087854;28;20203;-69
2024/03/05 09:01:53;;;;;;;16.13;10.57;;;8.90;99.90;;;;;;5088008;28;20858;-70
2024/03/05 09:04:20;;;;;;;12.57;9.90;;;9.00;99.90;;;;;;5087997;28;20260;-70
2024/03/05 09:06:47;;;;;;;25.73;10.10;;;9.00;99.90;;;;;;5087505;28;20684;-70
2024/03/05 09:09:16;;;;;;;13.27;9.63;;;9.10;99.90;;;;;;5087734;28;20214;-70
2024/03/05 09:11:43;;;;;;;12.87;10.00;;;9.20;99.90;;;;;;5087548;28;20291;-70
2024/03/05 09:14:10;;;;;;;16.67;10.23;;;9.20;99.90;;;;;;5087092;28;20329;-70
2024/03/05 09:16:38;;;;;;;14.33;9.97;;;9.20;99.90;;;;;;5087895;28;20206;-70
2024/03/05 09:19:05;;;;;;;13.27;9.53;;;9.30;99.90;;;;;;5087439;28;20203;-70
2024/03/05 09:21:32;;;;;;;14.57;9.80;;;9.40;99.90;;;;;;5087528;28;20205;-70
2024/03/05 09:23:59;;;;;;;17.00;9.87;;;9.50;99.90;;;;;;5086975;28;20203;-70
2024/03/05 09:26:29;;;;;;;12.53;9.83;;;9.60;99.90;;;;;;5087338;28;20209;-70
2024/03/05 09:28:56;;;;;;;14.50;9.80;;;9.60;99.90;;;;;;5087689;28;20238;-70
2024/03/05 09:31:23;;;;;;;13.63;9.47;;;9.50;99.90;;;;;;5087975;28;20211;-70
2024/03/05 09:33:50;;;;;;;18.13;9.87;;;9.50;99.90;;;;;;5087413;28;20206;-70
2024/03/05 09:36:17;;;;;;;11.70;9.03;;;9.50;99.90;;;;;;5087040;28;20234;-69
2024/03/05 09:38:44;;;;;;;13.83;9.33;;;9.60;99.90;;;;;;5087171;28;20294;-70
2024/03/05 09:41:12;;;;;;;13.47;9.00;;;9.80;99.90;;;;;;5087037;28;20721;-70
2024/03/05 09:43:44;;;;;;;18.23;9.07;;;10.00;99.90;;;;;;5087273;28;20207;-70
2024/03/05 09:46:14;;;;;;;16.33;9.30;;;10.10;99.90;;;;;;5087572;28;20195;-70
2024/03/05 09:48:42;;;;;;;28.77;9.37;;;10.10;99.90;;;;;;5087386;28;20194;-70
2024/03/05 09:51:10;;;;;;;12.90;8.20;;;10.10;99.90;;;;;;5087500;28;20577;-70
2024/03/05 09:53:38;;;;;;;12.80;8.70;;;10.30;99.90;;;;;;5087052;28;20498;-70
2024/03/05 09:56:06;;;;;;;11.30;7.83;;;10.30;99.90;;;;;;5087138;28;20234;-70
2024/03/05 09:58:34;;;;;;;12.30;8.47;;;10.40;99.90;;;;;;5087310;28;20241;-70
2024/03/05 10:01:05;;;;;;;11.03;7.83;;;10.60;99.90;;;;;;5087464;28;20204;-70
2024/03/05 10:03:34;;;;;;;14.70;8.33;;;10.70;99.90;;;;;;5086706;28;20647;-70
2024/03/05 10:06:01;;;;;;;13.30;8.23;;;10.70;99.90;;;;;;5086979;28;20267;-70
2024/03/05 10:08:28;;;;;;;16.00;8.83;;;10.80;99.90;;;;;;5086835;28;20291;-70
2024/03/05 10:11:00;;;;;;;12.93;7.97;;;10.80;99.90;;;;;;5086703;28;20256;-70
2024/03/05 10:13:31;;;;;;;10.07;7.63;;;10.90;99.90;;;;;;5086383;28;20238;-70
2024/03/05 10:16:15;;;;;;;9.40;7.40;;;11.00;99.90;;;;;;5086631;28;20716;-70
2024/03/05 10:18:42;;;;;;;19.97;8.17;;;11.00;99.90;;;;;;5086631;28;20187;-70
2024/03/05 10:21:18;;;;;;;10.90;7.53;;;10.80;99.90;;;;;;5086861;28;20683;-70
2024/03/05 10:23:46;;;;;;;10.17;7.67;;;10.70;99.90;;;;;;5086948;28;20191;-70
2024/03/05 10:26:20;;;;;;;10.80;7.73;;;10.80;99.90;;;;;;5086353;28;20732;-69
2024/03/05 10:28:50;;;;;;;12.57;7.30;;;10.90;99.90;;;;;;5087252;28;20210;-70
2024/03/05 10:31:23;;;;;;;10.60;8.67;;;10.90;99.90;;;;;;5086652;28;20645;-70
2024/03/05 10:33:53;;;;;;;13.33;8.30;;;11.10;99.90;;;;;;5086679;28;20267;-70
2024/03/05 10:36:27;;;;;;;10.17;7.53;;;11.30;99.90;;;;;;5086493;28;20344;-70
2024/03/05 10:38:54;;;;;;;15.83;7.40;;;11.30;99.90;;;;;;5086717;28;20297;-70
2024/03/05 10:41:22;;;;;;;20.03;8.07;;;11.40;99.90;;;;;;5086570;28;20285;-70
2024/03/05 10:43:52;;;;;;;12.23;8.33;;;11.50;99.90;;;;;;5086685;28;20298;-70
2024/03/05 10:46:22;;;;;;;12.83;8.40;;;11.50;99.90;;;;;;5086644;28;20210;-70
2024/03/05 10:48:50;;;;;;;14.17;7.90;;;11.70;99.90;;;;;;5086773;28;20302;-70
2024/03/05 10:51:20;;;;;;;11.43;7.70;;;11.70;99.90;;;;;;5089572;28;20283;-70
2024/03/05 10:53:49;;;;;;;13.90;8.20;;;11.80;99.90;;;;;;5090720;28;20223;-70
2024/03/05 10:56:17;;;;;;;9.13;7.53;;;11.80;99.90;;;;;;5090246;28;20418;-70
2024/03/05 10:59:19;;;;;;;12.37;7.20;;;12.00;99.90;;;;;;5090271;28;20665;-69
2024/03/05 11:01:47;;;;;;;11.47;6.90;;;12.00;99.90;;;;;;5090148;28;20210;-70
2024/03/05 11:04:15;;;;;;;13.40;7.00;;;11.80;99.90;;;;;;5090222;28;20236;-70
2024/03/05 11:06:45;;;;;;;8.30;6.80;;;11.90;99.90;;;;;;5089810;28;20705;-70
2024/03/05 11:09:15;;;;;;;13.97;7.53;;;12.00;99.90;;;;;;5089906;28;20214;-70
2024/03/05 11:11:46;;;;;;;8.17;6.00;;;12.00;99.90;;;;;;5090206;28;20226;-70
2024/03/05 11:14:14;;;;;;;14.87;7.00;;;12.30;99.90;;;;;;5089632;28;20321;-70
2024/03/05 11:16:41;;;;;;;13.83;6.13;;;12.40;99.90;;;;;;5090264;28;20285;-70
2024/03/05 11:19:10;;;;;;;8.53;5.80;;;12.50;99.90;;;;;;5089982;28;20297;-70
2024/03/05 11:21:41;;;;;;;14.40;6.50;;;12.80;99.90;;;;;;5089785;28;20997;-70
2024/03/05 11:24:08;;;;;;;11.40;6.63;;;13.00;99.90;;;;;;5089912;28;20219;-70
2024/03/05 11:26:35;;;;;;;11.97;6.03;;;13.30;99.90;;;;;;5089692;28;20293;-70
2024/03/05 11:29:08;;;;;;;13.53;5.73;;;13.50;99.90;;;;;;5089388;28;20210;-70
2024/03/05 11:31:38;;;;;;;11.23;5.80;;;13.50;99.90;;;;;;5089794;28;20195;-70
2024/03/05 11:34:13;;;;;;;11.60;5.53;;;13.30;99.90;;;;;;5089967;28;20198;-70
2024/03/05 11:36:40;;;;;;;6.53;5.47;;;13.30;99.90;;;;;;5089691;28;20257;-70
2024/03/05 11:39:09;;;;;;;9.47;5.40;;;13.30;99.90;;;;;;5089451;28;20211;-70
2024/03/05 11:41:38;;;;;;;8.20;5.50;;;13.30;99.90;;;;;;5089076;28;20203;-70
2024/03/05 11:44:06;;;;;;;6.57;5.00;;;12.90;99.90;;;;;;5089772;28;20234;-70
2024/03/05 11:46:46;;;;;;;18.47;6.23;;;12.80;99.90;;;;;;5089264;28;20206;-70
2024/03/05 11:49:15;;;;;;;7.87;4.80;;;12.80;99.90;;;;;;5089532;28;20236;-70
2024/03/05 11:51:44;;;;;;;12.60;4.90;;;12.70;99.90;;;;;;5089526;28;20207;-70
2024/03/05 11:54:12;;;;;;;5.90;4.83;;;12.60;99.90;;;;;;5089469;28;20294;-70
2024/03/05 11:56:41;;;;;;;13.73;4.73;;;12.40;99.90;;;;;;5088689;28;20349;-70
2024/03/05 11:59:09;;;;;;;9.40;4.47;;;12.20;99.90;;;;;;5089412;28;20727;-69
2024/03/05 12:01:36;;;;;;;6.30;4.30;;;12.10;99.90;;;;;;5088764;28;20199;-70
2024/03/05 12:04:07;;;;;;;6.97;4.60;;;12.20;99.90;;;;;;5089151;28;20230;-71
2024/03/05 12:06:36;;;;;;;7.87;4.47;;;12.20;99.90;;;;;;5089197;28;20195;-70
2024/03/05 12:09:18;;;;;;;13.67;4.73;;;12.20;99.90;;;;;;5089142;28;20211;-70
2024/03/05 12:12:02;;;;;;;9.67;4.83;;;12.10;99.90;;;;;;5088545;28;20720;-70
2024/03/05 12:14:30;;;;;;;7.47;4.80;;;12.10;99.90;;;;;;5089043;28;20222;-70
2024/03/05 12:17:00;;;;;;;6.27;4.63;;;12.40;99.90;;;;;;5088905;28;20214;-70
2024/03/05 12:19:27;;;;;;;7.77;4.77;;;12.60;99.90;;;;;;5088315;28;20361;-70
2024/03/05 12:21:56;;;;;;;7.03;4.67;;;12.70;99.90;;;;;;5088651;28;20202;-70
2024/03/05 12:24:23;;;;;;;4.70;3.87;;;12.50;99.90;;;;;;5088376;28;20285;-70
2024/03/05 12:26:50;;;;;;;6.40;4.10;;;12.60;99.90;;;;;;5088607;28;20229;-70
2024/03/05 12:29:33;;;;;;;7.87;4.00;;;12.70;99.90;;;;;;5088401;28;20764;-70
2024/03/05 12:32:03;;;;;;;12.87;4.17;;;12.80;99.90;;;;;;5088927;28;20202;-70
2024/03/05 12:34:31;;;;;;;11.43;4.67;;;13.10;99.80;;;;;;5088146;28;20192;-70
2024/03/05 12:36:59;;;;;;;6.17;3.90;;;13.50;99.90;;;;;;5088422;28;20235;-70
2024/03/05 12:39:28;;;;;;;22.37;4.43;;;13.60;99.30;;;;;;5088296;28;20295;-70
2024/03/05 12:42:02;;;;;;;7.70;4.33;;;13.80;98.70;;;;;;5088682;28;20259;-70
2024/03/05 12:44:30;;;;;;;9.30;4.10;;;13.70;99.50;;;;;;5088100;28;20293;-70
2024/03/05 12:47:10;;;;;;;8.10;4.37;;;13.80;99.30;;;;;;5088619;28;21085;-70
2024/03/05 12:49:45;;;;;;;6.97;4.20;;;13.60;99.00;;;;;;5088281;28;20632;-70